sensor_id;sensor_type;location;lat;lon;timestamp;P1;durP1;ratioP1;P2;durP2;ratioP2
17524;SDS011;40431;52.198;9.902;2023-05-07T00:01:08;31.77;;;28.63;;
17524;SDS011;40431;52.198;9.902;2023-05-07T00:03:37;31.77;;;28.43;;
17524;SDS011;40431;52.198;9.902;2023-05-07T00:06:04;32.47;;;29.27;;
17524;SDS011;40431;52.198;9.902;2023-05-07T00:08:30;32.97;;;29.53;;
17524;SDS011;40431;52.198;9.902;2023-05-07T00:10:57;33.70;;;30.10;;
17524;SDS011;40431;52.198;9.902;2023-05-07T00:13:23;34.13;;;30.57;;
17524;SDS011;40431;52.198;9.902;2023-05-07T00:15:49;37.17;;;32.17;;
17524;SDS011;40431;52.198;9.902;2023-05-07T00:18:16;36.67;;;31.63;;
17524;SDS011;40431;52.198;9.902;2023-05-07T00:20:47;33.67;;;30.10;;
17524;SDS011;40431;52.198;9.902;2023-05-07T00:23:13;34.53;;;30.47;;
17524;SDS011;40431;52.198;9.902;2023-05-07T00:25:40;34.17;;;30.60;;
17524;SDS011;40431;52.198;9.902;2023-05-07T00:28:06;34.73;;;31.03;;
17524;SDS011;40431;52.198;9.902;2023-05-07T00:30:32;33.17;;;29.07;;
17524;SDS011;40431;52.198;9.902;2023-05-07T00:32:59;31.23;;;28.07;;
17524;SDS011;40431;52.198;9.902;2023-05-07T00:35:25;36.03;;;30.40;;
17524;SDS011;40431;52.198;9.902;2023-05-07T00:37:53;31.50;;;28.00;;
17524;SDS011;40431;52.198;9.902;2023-05-07T00:40:20;31.37;;;28.10;;
17524;SDS011;40431;52.198;9.902;2023-05-07T00:42:46;37.17;;;28.97;;
17524;SDS011;40431;52.198;9.902;2023-05-07T00:45:13;32.70;;;29.20;;
17524;SDS011;40431;52.198;9.902;2023-05-07T00:47:40;35.00;;;29.63;;
17524;SDS011;40431;52.198;9.902;2023-05-07T00:50:08;33.93;;;30.20;;
17524;SDS011;40431;52.198;9.902;2023-05-07T00:52:37;32.33;;;28.83;;
17524;SDS011;40431;52.198;9.902;2023-05-07T00:55:06;36.07;;;30.27;;
17524;SDS011;40431;52.198;9.902;2023-05-07T00:57:33;33.93;;;30.27;;
17524;SDS011;40431;52.198;9.902;2023-05-07T01:00:03;37.47;;;30.93;;
17524;SDS011;40431;52.198;9.902;2023-05-07T01:02:30;37.07;;;30.33;;
17524;SDS011;40431;52.198;9.902;2023-05-07T01:04:56;40.27;;;31.57;;
17524;SDS011;40431;52.198;9.902;2023-05-07T01:07:23;41.40;;;32.97;;
17524;SDS011;40431;52.198;9.902;2023-05-07T01:09:49;39.73;;;31.60;;
17524;SDS011;40431;52.198;9.902;2023-05-07T01:12:17;36.10;;;28.63;;
17524;SDS011;40431;52.198;9.902;2023-05-07T01:14:44;39.93;;;30.83;;
17524;SDS011;40431;52.198;9.902;2023-05-07T01:17:10;40.50;;;31.53;;
17524;SDS011;40431;52.198;9.902;2023-05-07T01:19:37;38.27;;;31.43;;
17524;SDS011;40431;52.198;9.902;2023-05-07T01:22:08;40.17;;;31.03;;
17524;SDS011;40431;52.198;9.902;2023-05-07T01:24:38;34.87;;;28.30;;
17524;SDS011;40431;52.198;9.902;2023-05-07T01:27:04;32.40;;;29.03;;
17524;SDS011;40431;52.198;9.902;2023-05-07T01:29:30;36.20;;;29.73;;
17524;SDS011;40431;52.198;9.902;2023-05-07T01:31:57;35.73;;;29.37;;
17524;SDS011;40431;52.198;9.902;2023-05-07T01:34:25;41.37;;;30.70;;
17524;SDS011;40431;52.198;9.902;2023-05-07T01:36:56;32.70;;;29.10;;
17524;SDS011;40431;52.198;9.902;2023-05-07T01:39:24;30.50;;;27.20;;
17524;SDS011;40431;52.198;9.902;2023-05-07T01:41:54;28.33;;;25.10;;
17524;SDS011;40431;52.198;9.902;2023-05-07T01:44:21;27.60;;;24.90;;
17524;SDS011;40431;52.198;9.902;2023-05-07T01:46:48;27.47;;;24.53;;
17524;SDS011;40431;52.198;9.902;2023-05-07T01:49:15;26.03;;;23.37;;
17524;SDS011;40431;52.198;9.902;2023-05-07T01:51:43;26.80;;;23.97;;
17524;SDS011;40431;52.198;9.902;2023-05-07T01:54:10;24.53;;;22.17;;
17524;SDS011;40431;52.198;9.902;2023-05-07T01:56:36;24.90;;;22.53;;
17524;SDS011;40431;52.198;9.902;2023-05-07T01:59:04;24.53;;;22.17;;
17524;SDS011;40431;52.198;9.902;2023-05-07T02:01:30;24.87;;;22.67;;
17524;SDS011;40431;52.198;9.902;2023-05-07T02:03:56;23.50;;;21.30;;
17524;SDS011;40431;52.198;9.902;2023-05-07T02:06:23;23.60;;;21.50;;
17524;SDS011;40431;52.198;9.902;2023-05-07T02:08:49;22.40;;;20.47;;
17524;SDS011;40431;52.198;9.902;2023-05-07T02:11:16;22.53;;;20.53;;
17524;SDS011;40431;52.198;9.902;2023-05-07T02:13:42;21.60;;;19.70;;
17524;SDS011;40431;52.198;9.902;2023-05-07T02:16:10;22.53;;;20.50;;
17524;SDS011;40431;52.198;9.902;2023-05-07T02:18:39;20.93;;;19.10;;
17524;SDS011;40431;52.198;9.902;2023-05-07T02:21:05;20.67;;;18.93;;
17524;SDS011;40431;52.198;9.902;2023-05-07T02:23:31;21.40;;;19.60;;
17524;SDS011;40431;52.198;9.902;2023-05-07T02:25:58;20.17;;;18.60;;
17524;SDS011;40431;52.198;9.902;2023-05-07T02:28:24;20.80;;;18.90;;
17524;SDS011;40431;52.198;9.902;2023-05-07T02:30:51;19.97;;;18.33;;
17524;SDS011;40431;52.198;9.902;2023-05-07T02:33:19;20.27;;;18.67;;
17524;SDS011;40431;52.198;9.902;2023-05-07T02:35:45;19.10;;;17.60;;
17524;SDS011;40431;52.198;9.902;2023-05-07T02:38:11;19.43;;;17.83;;
17524;SDS011;40431;52.198;9.902;2023-05-07T02:40:38;19.80;;;18.10;;
17524;SDS011;40431;52.198;9.902;2023-05-07T02:43:04;19.27;;;17.77;;
17524;SDS011;40431;52.198;9.902;2023-05-07T02:45:31;19.73;;;18.07;;
17524;SDS011;40431;52.198;9.902;2023-05-07T02:47:57;18.57;;;17.07;;
17524;SDS011;40431;52.198;9.902;2023-05-07T02:50:26;17.80;;;16.50;;
17524;SDS011;40431;52.198;9.902;2023-05-07T02:52:52;18.53;;;17.07;;
17524;SDS011;40431;52.198;9.902;2023-05-07T02:55:19;18.40;;;16.90;;
17524;SDS011;40431;52.198;9.902;2023-05-07T02:57:45;20.03;;;18.43;;
17524;SDS011;40431;52.198;9.902;2023-05-07T03:00:12;19.50;;;18.00;;
17524;SDS011;40431;52.198;9.902;2023-05-07T03:02:40;21.47;;;19.90;;
17524;SDS011;40431;52.198;9.902;2023-05-07T03:05:07;20.97;;;19.43;;
17524;SDS011;40431;52.198;9.902;2023-05-07T03:07:35;20.00;;;18.50;;
17524;SDS011;40431;52.198;9.902;2023-05-07T03:10:02;19.10;;;17.60;;
17524;SDS011;40431;52.198;9.902;2023-05-07T03:12:29;19.87;;;18.27;;
17524;SDS011;40431;52.198;9.902;2023-05-07T03:14:56;19.27;;;17.73;;
17524;SDS011;40431;52.198;9.902;2023-05-07T03:17:22;20.33;;;18.63;;
17524;SDS011;40431;52.198;9.902;2023-05-07T03:19:48;20.40;;;18.80;;
17524;SDS011;40431;52.198;9.902;2023-05-07T03:22:15;21.07;;;19.47;;
17524;SDS011;40431;52.198;9.902;2023-05-07T03:24:42;22.20;;;20.40;;
17524;SDS011;40431;52.198;9.902;2023-05-07T03:27:09;20.70;;;19.00;;
17524;SDS011;40431;52.198;9.902;2023-05-07T03:29:35;20.53;;;18.73;;
17524;SDS011;40431;52.198;9.902;2023-05-07T03:32:02;19.33;;;17.77;;
17524;SDS011;40431;52.198;9.902;2023-05-07T03:34:28;18.53;;;17.00;;
17524;SDS011;40431;52.198;9.902;2023-05-07T03:36:54;20.43;;;18.87;;
17524;SDS011;40431;52.198;9.902;2023-05-07T03:39:21;20.57;;;18.77;;
17524;SDS011;40431;52.198;9.902;2023-05-07T03:41:49;20.47;;;18.87;;
17524;SDS011;40431;52.198;9.902;2023-05-07T03:44:15;20.07;;;18.50;;
17524;SDS011;40431;52.198;9.902;2023-05-07T03:46:41;17.77;;;16.27;;
17524;SDS011;40431;52.198;9.902;2023-05-07T03:49:08;18.80;;;17.30;;
17524;SDS011;40431;52.198;9.902;2023-05-07T03:51:34;19.93;;;18.33;;
17524;SDS011;40431;52.198;9.902;2023-05-07T03:54:01;20.13;;;18.53;;
17524;SDS011;40431;52.198;9.902;2023-05-07T03:56:27;20.63;;;19.03;;
17524;SDS011;40431;52.198;9.902;2023-05-07T03:58:55;20.00;;;18.50;;
17524;SDS011;40431;52.198;9.902;2023-05-07T04:01:22;19.57;;;17.90;;
17524;SDS011;40431;52.198;9.902;2023-05-07T04:03:48;19.13;;;16.70;;
17524;SDS011;40431;52.198;9.902;2023-05-07T04:06:15;18.53;;;16.70;;
17524;SDS011;40431;52.198;9.902;2023-05-07T04:08:42;17.97;;;16.57;;
17524;SDS011;40431;52.198;9.902;2023-05-07T04:11:08;18.67;;;17.17;;
17524;SDS011;40431;52.198;9.902;2023-05-07T04:13:34;19.40;;;17.67;;
17524;SDS011;40431;52.198;9.902;2023-05-07T04:18:32;18.20;;;16.70;;
17524;SDS011;40431;52.198;9.902;2023-05-07T04:20:58;17.87;;;16.27;;
17524;SDS011;40431;52.198;9.902;2023-05-07T04:23:24;17.70;;;16.27;;
17524;SDS011;40431;52.198;9.902;2023-05-07T04:25:51;18.60;;;17.03;;
17524;SDS011;40431;52.198;9.902;2023-05-07T04:28:19;17.70;;;16.33;;
17524;SDS011;40431;52.198;9.902;2023-05-07T04:30:45;17.33;;;15.90;;
17524;SDS011;40431;52.198;9.902;2023-05-07T04:33:14;18.33;;;16.83;;
17524;SDS011;40431;52.198;9.902;2023-05-07T04:35:41;17.97;;;16.63;;
17524;SDS011;40431;52.198;9.902;2023-05-07T04:38:08;17.73;;;16.33;;
17524;SDS011;40431;52.198;9.902;2023-05-07T04:40:35;17.13;;;15.73;;
17524;SDS011;40431;52.198;9.902;2023-05-07T04:43:02;17.20;;;15.80;;
17524;SDS011;40431;52.198;9.902;2023-05-07T04:45:28;16.53;;;15.23;;
17524;SDS011;40431;52.198;9.902;2023-05-07T04:47:54;16.37;;;14.97;;
17524;SDS011;40431;52.198;9.902;2023-05-07T04:50:22;15.93;;;14.73;;
17524;SDS011;40431;52.198;9.902;2023-05-07T04:52:49;16.57;;;15.07;;
17524;SDS011;40431;52.198;9.902;2023-05-07T04:55:15;17.07;;;15.67;;
17524;SDS011;40431;52.198;9.902;2023-05-07T04:57:43;17.13;;;15.77;;
17524;SDS011;40431;52.198;9.902;2023-05-07T05:00:10;16.57;;;15.17;;
17524;SDS011;40431;52.198;9.902;2023-05-07T05:02:39;16.77;;;15.47;;
17524;SDS011;40431;52.198;9.902;2023-05-07T05:05:05;17.57;;;16.27;;
17524;SDS011;40431;52.198;9.902;2023-05-07T05:07:34;15.97;;;14.77;;
17524;SDS011;40431;52.198;9.902;2023-05-07T05:10:01;16.17;;;14.87;;
17524;SDS011;40431;52.198;9.902;2023-05-07T05:12:28;14.93;;;13.73;;
17524;SDS011;40431;52.198;9.902;2023-05-07T05:14:55;15.57;;;14.33;;
17524;SDS011;40431;52.198;9.902;2023-05-07T05:17:21;15.10;;;13.93;;
17524;SDS011;40431;52.198;9.902;2023-05-07T05:19:47;16.20;;;14.83;;
17524;SDS011;40431;52.198;9.902;2023-05-07T05:22:14;15.10;;;14.00;;
17524;SDS011;40431;52.198;9.902;2023-05-07T05:24:41;15.10;;;13.90;;
17524;SDS011;40431;52.198;9.902;2023-05-07T05:27:08;14.10;;;13.00;;
17524;SDS011;40431;52.198;9.902;2023-05-07T05:29:34;14.63;;;13.63;;
17524;SDS011;40431;52.198;9.902;2023-05-07T05:32:00;14.67;;;13.53;;
17524;SDS011;40431;52.198;9.902;2023-05-07T05:34:27;14.10;;;12.97;;
17524;SDS011;40431;52.198;9.902;2023-05-07T05:36:55;13.57;;;12.57;;
17524;SDS011;40431;52.198;9.902;2023-05-07T05:39:21;13.27;;;12.37;;
17524;SDS011;40431;52.198;9.902;2023-05-07T05:41:49;12.03;;;11.13;;
17524;SDS011;40431;52.198;9.902;2023-05-07T05:44:16;12.77;;;11.87;;
17524;SDS011;40431;52.198;9.902;2023-05-07T05:46:42;12.83;;;11.90;;
17524;SDS011;40431;52.198;9.902;2023-05-07T05:49:10;13.73;;;12.67;;
17524;SDS011;40431;52.198;9.902;2023-05-07T05:51:37;13.50;;;12.60;;
17524;SDS011;40431;52.198;9.902;2023-05-07T05:54:03;12.43;;;11.50;;
17524;SDS011;40431;52.198;9.902;2023-05-07T05:56:29;12.87;;;11.97;;
17524;SDS011;40431;52.198;9.902;2023-05-07T05:58:57;12.50;;;11.60;;
17524;SDS011;40431;52.198;9.902;2023-05-07T06:01:24;12.77;;;11.87;;
17524;SDS011;40431;52.198;9.902;2023-05-07T06:03:50;12.27;;;11.37;;
17524;SDS011;40431;52.198;9.902;2023-05-07T06:06:16;10.97;;;10.20;;
17524;SDS011;40431;52.198;9.902;2023-05-07T06:08:43;12.87;;;11.70;;
17524;SDS011;40431;52.198;9.902;2023-05-07T06:11:09;12.40;;;11.40;;
17524;SDS011;40431;52.198;9.902;2023-05-07T06:13:36;11.27;;;10.47;;
17524;SDS011;40431;52.198;9.902;2023-05-07T06:16:04;12.60;;;11.70;;
17524;SDS011;40431;52.198;9.902;2023-05-07T06:18:31;11.63;;;10.83;;
17524;SDS011;40431;52.198;9.902;2023-05-07T06:20:57;12.27;;;11.37;;
17524;SDS011;40431;52.198;9.902;2023-05-07T06:23:23;11.93;;;11.13;;
17524;SDS011;40431;52.198;9.902;2023-05-07T06:25:50;11.20;;;10.40;;
17524;SDS011;40431;52.198;9.902;2023-05-07T06:28:17;10.53;;;9.73;;
17524;SDS011;40431;52.198;9.902;2023-05-07T06:30:43;10.37;;;9.63;;
17524;SDS011;40431;52.198;9.902;2023-05-07T06:33:11;10.37;;;9.67;;
17524;SDS011;40431;52.198;9.902;2023-05-07T06:35:37;9.43;;;8.83;;
17524;SDS011;40431;52.198;9.902;2023-05-07T06:38:04;9.30;;;8.63;;
17524;SDS011;40431;52.198;9.902;2023-05-07T06:40:30;8.87;;;8.30;;
17524;SDS011;40431;52.198;9.902;2023-05-07T06:42:56;9.43;;;8.83;;
17524;SDS011;40431;52.198;9.902;2023-05-07T06:45:23;9.67;;;8.97;;
17524;SDS011;40431;52.198;9.902;2023-05-07T06:47:50;10.30;;;9.50;;
17524;SDS011;40431;52.198;9.902;2023-05-07T06:50:17;9.53;;;8.83;;
17524;SDS011;40431;52.198;9.902;2023-05-07T06:52:44;8.87;;;8.27;;
17524;SDS011;40431;52.198;9.902;2023-05-07T06:55:10;8.80;;;8.10;;
17524;SDS011;40431;52.198;9.902;2023-05-07T06:57:37;10.03;;;9.33;;
17524;SDS011;40431;52.198;9.902;2023-05-07T07:00:04;8.83;;;8.23;;
17524;SDS011;40431;52.198;9.902;2023-05-07T07:02:33;8.40;;;7.77;;
17524;SDS011;40431;52.198;9.902;2023-05-07T07:05:00;8.70;;;8.10;;
17524;SDS011;40431;52.198;9.902;2023-05-07T07:07:28;8.53;;;7.93;;
17524;SDS011;40431;52.198;9.902;2023-05-07T07:09:55;9.17;;;8.53;;
17524;SDS011;40431;52.198;9.902;2023-05-07T07:12:21;9.53;;;8.93;;
17524;SDS011;40431;52.198;9.902;2023-05-07T07:14:49;8.93;;;8.23;;
17524;SDS011;40431;52.198;9.902;2023-05-07T07:17:16;8.80;;;8.20;;
17524;SDS011;40431;52.198;9.902;2023-05-07T07:19:42;8.97;;;8.27;;
17524;SDS011;40431;52.198;9.902;2023-05-07T07:22:09;8.57;;;7.97;;
17524;SDS011;40431;52.198;9.902;2023-05-07T07:24:37;8.97;;;8.27;;
17524;SDS011;40431;52.198;9.902;2023-05-07T07:27:03;9.17;;;8.57;;
17524;SDS011;40431;52.198;9.902;2023-05-07T07:29:30;8.17;;;7.57;;
17524;SDS011;40431;52.198;9.902;2023-05-07T07:31:56;9.07;;;8.47;;
17524;SDS011;40431;52.198;9.902;2023-05-07T07:34:23;8.80;;;8.20;;
17524;SDS011;40431;52.198;9.902;2023-05-07T07:36:49;8.83;;;8.23;;
17524;SDS011;40431;52.198;9.902;2023-05-07T07:39:15;9.37;;;8.77;;
17524;SDS011;40431;52.198;9.902;2023-05-07T07:41:43;8.30;;;7.80;;
17524;SDS011;40431;52.198;9.902;2023-05-07T07:44:09;8.43;;;7.73;;
17524;SDS011;40431;52.198;9.902;2023-05-07T07:46:37;9.27;;;8.67;;
17524;SDS011;40431;52.198;9.902;2023-05-07T07:49:04;8.63;;;8.13;;
17524;SDS011;40431;52.198;9.902;2023-05-07T07:51:31;9.63;;;9.03;;
17524;SDS011;40431;52.198;9.902;2023-05-07T07:53:57;9.77;;;9.17;;
17524;SDS011;40431;52.198;9.902;2023-05-07T07:56:23;10.30;;;9.60;;
17524;SDS011;40431;52.198;9.902;2023-05-07T07:58:51;11.97;;;11.23;;
17524;SDS011;40431;52.198;9.902;2023-05-07T08:01:17;11.13;;;10.43;;
17524;SDS011;40431;52.198;9.902;2023-05-07T08:03:44;12.53;;;11.73;;
17524;SDS011;40431;52.198;9.902;2023-05-07T08:06:10;11.97;;;11.07;;
17524;SDS011;40431;52.198;9.902;2023-05-07T08:08:36;12.10;;;11.30;;
17524;SDS011;40431;52.198;9.902;2023-05-07T08:11:03;11.90;;;11.10;;
17524;SDS011;40431;52.198;9.902;2023-05-07T08:13:29;11.43;;;10.73;;
17524;SDS011;40431;52.198;9.902;2023-05-07T08:15:57;13.20;;;12.30;;
17524;SDS011;40431;52.198;9.902;2023-05-07T08:18:24;12.63;;;11.83;;
17524;SDS011;40431;52.198;9.902;2023-05-07T08:20:50;12.00;;;11.20;;
17524;SDS011;40431;52.198;9.902;2023-05-07T08:23:17;12.50;;;11.70;;
17524;SDS011;40431;52.198;9.902;2023-05-07T08:25:43;10.90;;;10.20;;
17524;SDS011;40431;52.198;9.902;2023-05-07T08:28:09;11.17;;;10.47;;
17524;SDS011;40431;52.198;9.902;2023-05-07T08:30:36;11.87;;;11.07;;
17524;SDS011;40431;52.198;9.902;2023-05-07T08:33:04;11.27;;;10.47;;
17524;SDS011;40431;52.198;9.902;2023-05-07T08:35:30;11.57;;;10.77;;
17524;SDS011;40431;52.198;9.902;2023-05-07T08:37:56;11.03;;;10.23;;
17524;SDS011;40431;52.198;9.902;2023-05-07T08:40:24;11.60;;;10.80;;
17524;SDS011;40431;52.198;9.902;2023-05-07T08:42:52;11.30;;;10.50;;
17524;SDS011;40431;52.198;9.902;2023-05-07T08:45:19;11.53;;;10.67;;
17524;SDS011;40431;52.198;9.902;2023-05-07T08:47:47;11.40;;;10.53;;
17524;SDS011;40431;52.198;9.902;2023-05-07T08:50:17;11.43;;;10.67;;
17524;SDS011;40431;52.198;9.902;2023-05-07T08:52:44;11.67;;;10.87;;
17524;SDS011;40431;52.198;9.902;2023-05-07T08:55:11;11.80;;;11.00;;
17524;SDS011;40431;52.198;9.902;2023-05-07T08:57:38;11.93;;;11.03;;
17524;SDS011;40431;52.198;9.902;2023-05-07T09:00:05;11.57;;;10.87;;
17524;SDS011;40431;52.198;9.902;2023-05-07T09:02:32;9.57;;;8.97;;
17524;SDS011;40431;52.198;9.902;2023-05-07T09:04:59;9.57;;;8.97;;
17524;SDS011;40431;52.198;9.902;2023-05-07T09:07:27;10.50;;;9.73;;
17524;SDS011;40431;52.198;9.902;2023-05-07T09:09:53;10.20;;;9.60;;
17524;SDS011;40431;52.198;9.902;2023-05-07T09:12:20;11.57;;;10.77;;
17524;SDS011;40431;52.198;9.902;2023-05-07T09:14:47;11.27;;;10.47;;
17524;SDS011;40431;52.198;9.902;2023-05-07T09:17:15;11.13;;;10.43;;
17524;SDS011;40431;52.198;9.902;2023-05-07T09:19:42;10.87;;;10.17;;
17524;SDS011;40431;52.198;9.902;2023-05-07T09:22:10;11.93;;;11.03;;
17524;SDS011;40431;52.198;9.902;2023-05-07T09:24:37;11.63;;;10.77;;
17524;SDS011;40431;52.198;9.902;2023-05-07T09:27:04;11.43;;;10.63;;
17524;SDS011;40431;52.198;9.902;2023-05-07T09:29:31;11.77;;;11.00;;
17524;SDS011;40431;52.198;9.902;2023-05-07T09:32:00;11.77;;;10.97;;
17524;SDS011;40431;52.198;9.902;2023-05-07T09:34:27;11.90;;;11.10;;
17524;SDS011;40431;52.198;9.902;2023-05-07T09:36:54;13.10;;;11.97;;
17524;SDS011;40431;52.198;9.902;2023-05-07T09:39:21;12.67;;;11.90;;
17524;SDS011;40431;52.198;9.902;2023-05-07T09:41:50;13.27;;;12.37;;
17524;SDS011;40431;52.198;9.902;2023-05-07T09:44:19;14.07;;;13.07;;
17524;SDS011;40431;52.198;9.902;2023-05-07T09:46:47;13.20;;;12.37;;
17524;SDS011;40431;52.198;9.902;2023-05-07T09:49:20;13.87;;;12.97;;
17524;SDS011;40431;52.198;9.902;2023-05-07T09:51:49;13.63;;;12.73;;
17524;SDS011;40431;52.198;9.902;2023-05-07T09:54:17;17.50;;;16.33;;
17524;SDS011;40431;52.198;9.902;2023-05-07T09:56:44;15.63;;;14.53;;
17524;SDS011;40431;52.198;9.902;2023-05-07T09:59:14;13.13;;;12.33;;
17524;SDS011;40431;52.198;9.902;2023-05-07T10:01:42;15.23;;;14.23;;
17524;SDS011;40431;52.198;9.902;2023-05-07T10:04:10;14.80;;;13.90;;
17524;SDS011;40431;52.198;9.902;2023-05-07T10:06:37;14.57;;;13.67;;
17524;SDS011;40431;52.198;9.902;2023-05-07T10:09:04;13.77;;;12.80;;
17524;SDS011;40431;52.198;9.902;2023-05-07T10:11:31;13.90;;;13.03;;
17524;SDS011;40431;52.198;9.902;2023-05-07T10:13:58;13.83;;;12.97;;
17524;SDS011;40431;52.198;9.902;2023-05-07T10:16:28;13.07;;;12.17;;
17524;SDS011;40431;52.198;9.902;2023-05-07T10:18:57;14.17;;;13.17;;
17524;SDS011;40431;52.198;9.902;2023-05-07T10:21:24;13.87;;;12.97;;
17524;SDS011;40431;52.198;9.902;2023-05-07T10:23:54;13.43;;;12.53;;
17524;SDS011;40431;52.198;9.902;2023-05-07T10:26:25;13.73;;;12.73;;
17524;SDS011;40431;52.198;9.902;2023-05-07T10:28:54;13.77;;;12.93;;
17524;SDS011;40431;52.198;9.902;2023-05-07T10:34:21;13.57;;;12.67;;
17524;SDS011;40431;52.198;9.902;2023-05-07T10:36:51;12.87;;;12.07;;
17524;SDS011;40431;52.198;9.902;2023-05-07T10:39:19;13.07;;;12.27;;
17524;SDS011;40431;52.198;9.902;2023-05-07T10:41:46;13.53;;;12.63;;
17524;SDS011;40431;52.198;9.902;2023-05-07T10:44:19;13.67;;;12.43;;
17524;SDS011;40431;52.198;9.902;2023-05-07T10:47:04;12.57;;;11.77;;
17524;SDS011;40431;52.198;9.902;2023-05-07T10:49:33;13.57;;;12.77;;
17524;SDS011;40431;52.198;9.902;2023-05-07T10:52:13;12.03;;;11.23;;
17524;SDS011;40431;52.198;9.902;2023-05-07T10:54:41;12.67;;;11.87;;
17524;SDS011;40431;52.198;9.902;2023-05-07T10:57:32;11.90;;;11.20;;
17524;SDS011;40431;52.198;9.902;2023-05-07T11:00:00;12.27;;;11.37;;
17524;SDS011;40431;52.198;9.902;2023-05-07T11:05:28;12.27;;;11.47;;
17524;SDS011;40431;52.198;9.902;2023-05-07T11:07:55;10.93;;;10.23;;
17524;SDS011;40431;52.198;9.902;2023-05-07T11:10:22;11.33;;;10.63;;
17524;SDS011;40431;52.198;9.902;2023-05-07T11:12:50;12.13;;;11.33;;
17524;SDS011;40431;52.198;9.902;2023-05-07T11:15:33;11.30;;;10.60;;
17524;SDS011;40431;52.198;9.902;2023-05-07T11:18:01;11.30;;;10.60;;
17524;SDS011;40431;52.198;9.902;2023-05-07T11:20:46;11.33;;;10.63;;
17524;SDS011;40431;52.198;9.902;2023-05-07T11:26:44;11.57;;;10.87;;
17524;SDS011;40431;52.198;9.902;2023-05-07T11:29:12;10.17;;;9.47;;
17524;SDS011;40431;52.198;9.902;2023-05-07T11:31:42;11.17;;;10.37;;
17524;SDS011;40431;52.198;9.902;2023-05-07T11:34:09;11.20;;;10.43;;
17524;SDS011;40431;52.198;9.902;2023-05-07T11:36:42;11.10;;;10.40;;
17524;SDS011;40431;52.198;9.902;2023-05-07T11:42:00;11.60;;;10.80;;
17524;SDS011;40431;52.198;9.902;2023-05-07T11:44:39;10.80;;;10.10;;
17524;SDS011;40431;52.198;9.902;2023-05-07T11:47:07;11.10;;;10.40;;
17524;SDS011;40431;52.198;9.902;2023-05-07T11:49:34;10.60;;;10.00;;
17524;SDS011;40431;52.198;9.902;2023-05-07T11:52:02;10.83;;;10.17;;
17524;SDS011;40431;52.198;9.902;2023-05-07T11:54:34;9.90;;;9.30;;
17524;SDS011;40431;52.198;9.902;2023-05-07T11:57:01;9.70;;;9.00;;
17524;SDS011;40431;52.198;9.902;2023-05-07T11:59:27;9.83;;;9.20;;
17524;SDS011;40431;52.198;9.902;2023-05-07T12:01:56;9.53;;;8.97;;
17524;SDS011;40431;52.198;9.902;2023-05-07T12:04:23;9.70;;;9.00;;
17524;SDS011;40431;52.198;9.902;2023-05-07T12:06:53;9.27;;;8.67;;
17524;SDS011;40431;52.198;9.902;2023-05-07T12:09:21;7.80;;;7.30;;
17524;SDS011;40431;52.198;9.902;2023-05-07T12:11:48;9.50;;;8.87;;
17524;SDS011;40431;52.198;9.902;2023-05-07T12:14:14;8.17;;;7.67;;
17524;SDS011;40431;52.198;9.902;2023-05-07T12:16:41;7.20;;;6.80;;
17524;SDS011;40431;52.198;9.902;2023-05-07T12:19:08;8.47;;;7.97;;
17524;SDS011;40431;52.198;9.902;2023-05-07T12:21:37;7.90;;;7.40;;
17524;SDS011;40431;52.198;9.902;2023-05-07T12:24:04;8.53;;;8.03;;
17524;SDS011;40431;52.198;9.902;2023-05-07T12:26:32;8.07;;;7.57;;
17524;SDS011;40431;52.198;9.902;2023-05-07T12:29:03;8.50;;;8.00;;
17524;SDS011;40431;52.198;9.902;2023-05-07T12:31:30;8.43;;;7.93;;
17524;SDS011;40431;52.198;9.902;2023-05-07T12:33:57;7.43;;;7.00;;
17524;SDS011;40431;52.198;9.902;2023-05-07T12:36:23;8.20;;;7.70;;
17524;SDS011;40431;52.198;9.902;2023-05-07T12:38:50;8.13;;;7.63;;
17524;SDS011;40431;52.198;9.902;2023-05-07T12:41:17;8.27;;;7.77;;
17524;SDS011;40431;52.198;9.902;2023-05-07T12:43:45;7.83;;;7.43;;
17524;SDS011;40431;52.198;9.902;2023-05-07T12:46:12;8.80;;;8.30;;
17524;SDS011;40431;52.198;9.902;2023-05-07T12:48:43;9.23;;;8.63;;
17524;SDS011;40431;52.198;9.902;2023-05-07T12:51:10;8.03;;;7.60;;
17524;SDS011;40431;52.198;9.902;2023-05-07T12:53:39;9.90;;;9.27;;
17524;SDS011;40431;52.198;9.902;2023-05-07T12:56:07;10.27;;;9.57;;
17524;SDS011;40431;52.198;9.902;2023-05-07T12:58:34;11.00;;;10.37;;
17524;SDS011;40431;52.198;9.902;2023-05-07T13:01:03;10.97;;;10.37;;
17524;SDS011;40431;52.198;9.902;2023-05-07T13:03:32;11.40;;;10.73;;
17524;SDS011;40431;52.198;9.902;2023-05-07T13:06:00;12.00;;;11.30;;
17524;SDS011;40431;52.198;9.902;2023-05-07T13:08:28;11.00;;;10.33;;
17524;SDS011;40431;52.198;9.902;2023-05-07T13:10:57;12.93;;;12.03;;
17524;SDS011;40431;52.198;9.902;2023-05-07T13:13:24;12.07;;;11.37;;
17524;SDS011;40431;52.198;9.902;2023-05-07T13:15:51;11.57;;;10.87;;
17524;SDS011;40431;52.198;9.902;2023-05-07T13:18:19;10.27;;;9.67;;
17524;SDS011;40431;52.198;9.902;2023-05-07T13:20:45;11.57;;;10.87;;
17524;SDS011;40431;52.198;9.902;2023-05-07T13:23:11;11.63;;;10.83;;
17524;SDS011;40431;52.198;9.902;2023-05-07T13:25:38;10.70;;;10.10;;
17524;SDS011;40431;52.198;9.902;2023-05-07T13:28:04;11.23;;;10.60;;
17524;SDS011;40431;52.198;9.902;2023-05-07T13:30:31;10.47;;;9.87;;
17524;SDS011;40431;52.198;9.902;2023-05-07T13:32:57;10.60;;;9.90;;
17524;SDS011;40431;52.198;9.902;2023-05-07T13:35:25;11.13;;;10.47;;
17524;SDS011;40431;52.198;9.902;2023-05-07T13:37:52;10.27;;;9.77;;
17524;SDS011;40431;52.198;9.902;2023-05-07T13:40:19;11.30;;;10.70;;
17524;SDS011;40431;52.198;9.902;2023-05-07T13:42:47;12.17;;;11.17;;
17524;SDS011;40431;52.198;9.902;2023-05-07T13:45:14;10.97;;;10.30;;
17524;SDS011;40431;52.198;9.902;2023-05-07T13:47:40;10.50;;;9.90;;
17524;SDS011;40431;52.198;9.902;2023-05-07T13:50:07;10.57;;;9.97;;
17524;SDS011;40431;52.198;9.902;2023-05-07T13:52:36;10.70;;;10.10;;
17524;SDS011;40431;52.198;9.902;2023-05-07T13:55:02;9.97;;;9.37;;
17524;SDS011;40431;52.198;9.902;2023-05-07T13:57:29;10.20;;;9.60;;
17524;SDS011;40431;52.198;9.902;2023-05-07T13:59:55;10.13;;;9.47;;
17524;SDS011;40431;52.198;9.902;2023-05-07T14:02:22;10.00;;;9.40;;
17524;SDS011;40431;52.198;9.902;2023-05-07T14:04:48;9.93;;;9.43;;
17524;SDS011;40431;52.198;9.902;2023-05-07T14:07:15;9.33;;;8.80;;
17524;SDS011;40431;52.198;9.902;2023-05-07T14:09:42;8.57;;;8.07;;
17524;SDS011;40431;52.198;9.902;2023-05-07T14:12:10;8.73;;;8.13;;
17524;SDS011;40431;52.198;9.902;2023-05-07T14:14:36;9.53;;;8.93;;
17524;SDS011;40431;52.198;9.902;2023-05-07T14:17:03;9.13;;;8.63;;
17524;SDS011;40431;52.198;9.902;2023-05-07T14:19:29;8.70;;;8.20;;
17524;SDS011;40431;52.198;9.902;2023-05-07T14:21:56;9.60;;;9.00;;
17524;SDS011;40431;52.198;9.902;2023-05-07T14:24:23;8.97;;;8.47;;
17524;SDS011;40431;52.198;9.902;2023-05-07T14:26:51;9.37;;;8.67;;
17524;SDS011;40431;52.198;9.902;2023-05-07T14:29:17;9.43;;;8.83;;
17524;SDS011;40431;52.198;9.902;2023-05-07T14:31:44;9.47;;;8.67;;
17524;SDS011;40431;52.198;9.902;2023-05-07T14:34:11;9.53;;;8.90;;
17524;SDS011;40431;52.198;9.902;2023-05-07T14:36:37;9.53;;;8.93;;
17524;SDS011;40431;52.198;9.902;2023-05-07T14:39:03;10.30;;;9.70;;
17524;SDS011;40431;52.198;9.902;2023-05-07T14:41:30;9.33;;;8.73;;
17524;SDS011;40431;52.198;9.902;2023-05-07T14:43:59;10.33;;;9.63;;